Time;durP1;ratioP1;P1;durP2;ratioP2;P2;SDS_P1;SDS_P2;PMS_P1;PMS_P2;Temp;Humidity;BMP_temperature;BMP_pressure;BME280_temperature;BME280_humidity;BME280_pressure;Samples;Min_cycle;Max_cycle;Signal;HPM_P1;HPM_P2
2022/10/16 00:01:08;;;;;;;10.27;4.72;;;;;;;11.30;100.00;96642.78;4981954;28;20054;-67
2022/10/16 00:03:35;;;;;;;7.13;3.83;;;;;;;11.42;100.00;96648.03;4979710;28;20100;-66
2022/10/16 00:06:01;;;;;;;10.05;4.85;;;;;;;11.32;100.00;96640.47;4978598;28;20042;-67
2022/10/16 00:08:27;;;;;;;10.20;4.43;;;;;;;11.25;100.00;96640.38;4975807;28;20450;-67
2022/10/16 00:10:58;;;;;;;12.75;6.57;;;;;;;11.28;100.00;96637.69;4987618;28;20030;-67
2022/10/16 00:13:24;;;;;;;10.05;4.40;;;;;;;11.34;100.00;96640.09;4984218;28;20057;-67
2022/10/16 00:15:49;;;;;;;9.40;4.18;;;;;;;11.40;100.00;96649.59;4976845;28;20049;-67
2022/10/16 00:18:15;;;;;;;10.18;4.30;;;;;;;11.45;100.00;96654.72;4973250;28;20562;-67
2022/10/16 00:20:40;;;;;;;11.18;4.88;;;;;;;11.49;100.00;96650.09;4970575;28;20459;-67
2022/10/16 00:23:06;;;;;;;10.65;4.15;;;;;;;11.55;100.00;96648.56;4976925;28;20046;-67
2022/10/16 00:25:36;;;;;;;9.05;4.65;;;;;;;11.61;100.00;96644.34;4974004;28;20133;-66
2022/10/16 00:28:01;;;;;;;;;;;;;;;11.68;100.00;96649.09;4986886;28;20133;-68
2022/10/16 00:30:27;;;;;;;8.20;3.88;;;;;;;11.74;100.00;96638.59;4981144;28;20027;-67
2022/10/16 00:32:53;;;;;;;6.95;4.28;;;;;;;11.74;100.00;96641.31;4980778;28;20085;-68
2022/10/16 00:35:19;;;;;;;7.20;4.05;;;;;;;11.73;100.00;96642.50;4972541;28;20833;-68
2022/10/16 00:37:44;;;;;;;10.48;3.88;;;;;;;11.73;100.00;96646.03;4980747;28;20042;-67
2022/10/16 00:40:10;;;;;;;11.45;4.53;;;;;;;11.79;100.00;96643.75;4978026;28;20125;-68
2022/10/16 00:42:35;;;;;;;7.03;3.28;;;;;;;11.90;100.00;96646.59;4981912;28;20043;-68
2022/10/16 00:45:02;;;;;;;7.22;3.47;;;;;;;11.91;100.00;96634.50;4980733;28;20053;-67
2022/10/16 00:47:34;;;;;;;4.35;2.50;;;;;;;11.89;100.00;96628.56;4977585;28;20059;-68
2022/10/16 00:50:13;;;;;;;4.70;3.05;;;;;;;11.90;100.00;96636.44;4979627;28;20038;-68
2022/10/16 00:52:44;;;;;;;10.10;3.83;;;;;;;11.94;100.00;96633.72;4974642;28;20145;-67
2022/10/16 00:55:09;;;;;;;9.82;3.75;;;;;;;11.92;100.00;96636.06;4974902;28;20403;-67
2022/10/16 00:57:36;;;;;;;6.20;3.35;;;;;;;11.88;100.00;96629.72;4974962;28;20049;-67
2022/10/16 01:00:06;;;;;;;5.60;3.00;;;;;;;11.85;100.00;96631.28;4985921;28;20034;-68
2022/10/16 01:02:32;;;;;;;6.03;3.30;;;;;;;11.85;100.00;96634.03;4992377;28;20531;-67
2022/10/16 01:04:58;;;;;;;12.98;3.00;;;;;;;11.91;100.00;96638.03;4988514;28;20060;-67
2022/10/16 01:08:09;;;;;;;9.57;3.97;;;;;;;11.86;100.00;96641.84;4980449;28;20923;-68
2022/10/16 01:10:43;;;;;;;7.90;3.42;;;;;;;11.93;100.00;96646.66;4932337;29;20047;-66
2022/10/16 01:13:15;;;;;;;7.28;3.08;;;;;;;11.97;100.00;96642.00;4991293;28;20096;-68
2022/10/16 01:16:05;;;;;;;5.57;3.03;;;;;;;12.02;100.00;96640.88;5003684;28;20069;-67
2022/10/16 01:18:39;;;;;;;12.55;3.95;;;;;;;11.93;100.00;96629.41;4989385;28;20109;-67
2022/10/16 01:21:28;;;;;;;9.05;3.60;;;;;;;11.91;100.00;96635.28;4972867;28;20038;-68
2022/10/16 01:24:00;;;;;;;7.90;3.40;;;;;;;11.91;100.00;96640.75;4985421;28;20078;-67
2022/10/16 01:27:03;;;;;;;6.50;3.28;;;;;;;11.95;100.00;96646.28;4979571;28;20052;-67
2022/10/16 01:29:36;;;;;;;6.43;3.50;;;;;;;11.97;100.00;96641.22;4975565;28;20042;-67
2022/10/16 01:32:14;;;;;;;13.77;3.35;;;;;;;11.95;100.00;96643.53;4983502;28;20491;-69
2022/10/16 01:34:50;;;;;;;12.55;3.53;;;;;;;11.96;100.00;96647.88;4984289;28;20368;-65
2022/10/16 01:37:27;;;;;;;8.80;3.38;;;;;;;11.94;100.00;96648.25;4980477;28;20400;-68
2022/10/16 01:39:58;;;;;;;9.02;3.40;;;;;;;11.95;100.00;96646.28;4984929;28;20504;-67
2022/10/16 01:42:38;;;;;;;11.68;3.53;;;;;;;12.00;100.00;96644.00;4989055;28;20628;-68
2022/10/16 01:45:07;;;;;;;13.15;3.83;;;;;;;12.06;100.00;96649.94;4979651;28;20034;-70
2022/10/16 01:47:35;;;;;;;13.98;3.63;;;;;;;12.03;100.00;96656.97;4978739;28;20042;-66
2022/10/16 01:50:04;;;;;;;9.63;3.40;;;;;;;12.02;100.00;96649.09;4982630;28;20130;-67
2022/10/16 01:52:34;;;;;;;13.10;4.05;;;;;;;12.01;100.00;96642.03;4965186;28;20042;-67
2022/10/16 01:55:03;;;;;;;7.43;3.47;;;;;;;11.99;100.00;96649.84;4965159;28;20542;-67
2022/10/16 01:57:31;;;;;;;7.63;3.33;;;;;;;12.06;100.00;96655.41;4964397;28;20053;-67
2022/10/16 02:00:01;;;;;;;6.70;3.25;;;;;;;12.10;100.00;96655.44;4964919;28;20519;-67
2022/10/16 02:02:30;;;;;;;9.95;3.80;;;;;;;12.05;100.00;96673.06;4968883;28;20137;-68
2022/10/16 02:05:10;;;;;;;11.68;3.20;;;;;;;11.94;100.00;96658.41;4974886;28;20039;-67
2022/10/16 02:07:36;;;;;;;12.18;3.28;;;;;;;11.92;100.00;96672.53;4983736;28;20097;-67
2022/10/16 02:10:02;;;;;;;18.63;3.90;;;;;;;11.88;100.00;96673.63;4997208;28;20069;-67
2022/10/16 02:12:32;;;;;;;7.05;3.10;;;;;;;11.94;100.00;96669.41;4999049;28;20550;-66
2022/10/16 02:14:58;;;;;;;22.27;3.13;;;;;;;11.94;100.00;96664.72;4997269;28;20610;-67
2022/10/16 02:17:24;;;;;;;7.03;2.90;;;;;;;11.92;100.00;96661.56;4973805;28;20577;-67
2022/10/16 02:19:54;;;;;;;13.57;4.07;;;;;;;11.90;100.00;96663.06;4984172;28;20062;-67
2022/10/16 02:22:46;;;;;;;7.35;3.45;;;;;;;12.00;100.00;96663.19;4976904;28;20045;-67
2022/10/16 02:25:31;;;;;;;9.70;2.95;;;;;;;12.08;100.00;96652.28;4964096;28;20053;-67
2022/10/16 02:28:09;;;;;;;10.02;2.83;;;;;;;12.12;100.00;96655.84;4984033;28;20499;-67
2022/10/16 02:30:54;;;;;;;10.45;2.60;;;;;;;12.05;100.00;96662.09;4983387;28;20101;-66
2022/10/16 02:33:22;;;;;;;18.88;3.30;;;;;;;12.02;100.00;96657.34;4977094;28;20125;-67
2022/10/16 02:35:50;;;;;;;8.98;2.97;;;;;;;11.97;100.00;96654.94;4983639;28;20442;-68
2022/10/16 02:38:17;;;;;;;6.25;3.22;;;;;;;11.95;100.00;96649.81;4975695;28;20038;-67
2022/10/16 02:40:43;;;;;;;7.15;2.85;;;;;;;12.02;100.00;96655.38;4982521;28;20054;-67
2022/10/16 02:43:09;;;;;;;6.18;2.80;;;;;;;12.18;100.00;96646.91;4978459;28;20073;-68
2022/10/16 02:45:35;;;;;;;7.72;3.00;;;;;;;12.13;100.00;96646.47;4982821;28;20251;-68
2022/10/16 02:48:01;;;;;;;7.93;2.50;;;;;;;12.10;100.00;96648.03;4974570;28;20416;-67
2022/10/16 02:50:26;;;;;;;5.70;3.38;;;;;;;12.14;100.00;96665.31;4977658;28;20046;-67
2022/10/16 02:52:52;;;;;;;4.88;3.45;;;;;;;12.17;100.00;96658.25;4982522;28;20153;-67
2022/10/16 02:55:17;;;;;;;10.13;3.25;;;;;;;12.32;100.00;96649.00;4978720;28;20049;-67
2022/10/16 02:57:43;;;;;;;7.40;3.40;;;;;;;12.15;100.00;96633.16;4981462;28;20053;-67
2022/10/16 03:00:12;;;;;;;6.93;2.88;;;;;;;12.03;100.00;96645.22;4978647;28;20046;-67
2022/10/16 03:02:38;;;;;;;8.40;3.42;;;;;;;12.00;100.00;96645.94;4982016;28;20050;-68
2022/10/16 03:05:04;;;;;;;8.65;2.60;;;;;;;11.96;100.00;96653.38;4978261;28;20058;-67
2022/10/16 03:07:29;;;;;;;9.55;3.03;;;;;;;11.97;100.00;96663.16;4982538;28;20050;-67
2022/10/16 03:09:55;;;;;;;6.60;3.00;;;;;;;12.21;100.00;96670.09;5003119;28;20053;-67
2022/10/16 03:12:22;;;;;;;5.40;2.75;;;;;;;12.20;100.00;96669.28;5011939;28;20048;-67
2022/10/16 03:14:47;;;;;;;10.32;3.58;;;;;;;12.15;100.00;96669.63;5005439;28;20029;-67
2022/10/16 03:17:13;;;;;;;12.75;2.80;;;;;;;12.13;100.00;96671.19;4998445;28;20038;-67
2022/10/16 03:19:39;;;;;;;10.00;3.45;;;;;;;12.01;100.00;96663.97;4989931;28;20440;-67
2022/10/16 03:22:04;;;;;;;8.02;2.90;;;;;;;11.90;100.00;96657.56;4978442;28;20133;-68
2022/10/16 03:24:30;;;;;;;9.30;2.85;;;;;;;11.79;100.00;96650.03;4983625;28;20613;-67
2022/10/16 03:26:56;;;;;;;12.27;2.90;;;;;;;11.85;100.00;96643.03;4982182;28;20066;-67
2022/10/16 03:29:22;;;;;;;10.18;3.55;;;;;;;11.71;100.00;96639.34;4979577;28;20691;-67
2022/10/16 03:31:49;;;;;;;10.02;3.58;;;;;;;11.52;100.00;96623.84;4985458;28;20054;-67
2022/10/16 03:34:15;;;;;;;9.40;3.50;;;;;;;11.46;100.00;96639.84;4978278;28;20483;-67
2022/10/16 03:36:40;;;;;;;17.25;3.60;;;;;;;11.47;100.00;96652.41;4984737;28;20054;-68
2022/10/16 03:39:05;;;;;;;8.75;3.95;;;;;;;11.44;100.00;96653.94;4981911;28;20467;-68
2022/10/16 03:41:31;;;;;;;9.73;3.65;;;;;;;11.41;100.00;96648.41;4983229;28;20090;-67
2022/10/16 03:43:56;;;;;;;12.75;3.65;;;;;;;11.49;100.00;96666.53;4985381;28;20068;-68
2022/10/16 03:46:22;;;;;;;11.43;3.35;;;;;;;11.60;100.00;96663.94;4976156;28;20257;-67
2022/10/16 03:48:48;;;;;;;8.52;3.05;;;;;;;11.66;100.00;96676.13;4982696;28;20058;-67
2022/10/16 03:51:13;;;;;;;11.55;3.70;;;;;;;11.66;100.00;96665.94;4974493;28;20444;-67
2022/10/16 03:53:39;;;;;;;6.47;2.92;;;;;;;11.59;100.00;96668.59;4982888;28;20075;-67
2022/10/16 03:56:05;;;;;;;6.53;3.28;;;;;;;11.63;100.00;96669.44;4968210;28;20035;-67
2022/10/16 03:58:30;;;;;;;4.97;3.30;;;;;;;11.65;100.00;96678.09;4983366;28;20061;-67
2022/10/16 04:00:56;;;;;;;11.90;3.22;;;;;;;11.71;100.00;96680.50;4979787;28;20149;-67
2022/10/16 04:03:22;;;;;;;5.47;3.25;;;;;;;11.78;100.00;96681.38;4974714;28;20077;-67
2022/10/16 04:05:48;;;;;;;8.98;3.03;;;;;;;11.71;100.00;96684.03;4980621;28;20057;-67
2022/10/16 04:08:14;;;;;;;11.43;3.58;;;;;;;11.64;100.00;96683.94;4977007;28;20042;-67
2022/10/16 04:10:39;;;;;;;20.48;6.95;;;;;;;11.54;100.00;96706.53;4982009;28;20137;-67
2022/10/16 04:13:05;;;;;;;9.15;3.97;;;;;;;11.41;100.00;96692.28;4976676;28;20125;-68
2022/10/16 04:15:30;;;;;;;12.02;2.88;;;;;;;11.45;100.00;96701.34;4979622;28;20490;-67
2022/10/16 04:17:56;;;;;;;13.10;3.90;;;;;;;11.29;100.00;96704.28;4981382;28;20496;-67
2022/10/16 04:20:22;;;;;;;13.18;4.20;;;;;;;11.15;100.00;96698.59;4973666;28;20139;-67
2022/10/16 04:22:47;;;;;;;6.60;3.50;;;;;;;11.04;100.00;96693.75;4984079;28;20116;-67
2022/10/16 04:25:13;;;;;;;11.50;4.45;;;;;;;10.99;100.00;96694.06;4979294;28;20046;-67
2022/10/16 04:27:39;;;;;;;14.73;3.10;;;;;;;10.96;100.00;96699.50;4983862;28;20046;-67
2022/10/16 04:30:05;;;;;;;4.00;2.80;;;;;;;10.99;100.00;96698.75;4977376;28;20043;-67
2022/10/16 04:32:31;;;;;;;18.85;3.95;;;;;;;10.85;100.00;96697.38;4977682;28;20057;-67
2022/10/16 04:34:56;;;;;;;6.57;3.42;;;;;;;10.92;100.00;96699.44;4982070;28;20034;-67
2022/10/16 04:37:26;;;;;;;10.10;3.35;;;;;;;11.00;100.00;96695.66;4977532;28;20065;-67
2022/10/16 04:39:52;;;;;;;18.00;3.80;;;;;;;11.03;100.00;96700.38;4981683;28;20041;-68
2022/10/16 04:42:19;;;;;;;11.02;3.35;;;;;;;11.11;100.00;96701.31;4985163;28;20046;-68
2022/10/16 04:44:45;;;;;;;8.15;3.38;;;;;;;11.18;100.00;96700.59;4987042;28;20129;-67
2022/10/16 04:47:10;;;;;;;9.00;3.30;;;;;;;11.24;100.00;96697.16;4966727;28;20444;-67
2022/10/16 04:49:36;;;;;;;12.63;3.45;;;;;;;11.24;100.00;96704.59;4979964;28;20046;-67
2022/10/16 04:52:01;;;;;;;6.93;3.08;;;;;;;11.20;100.00;96709.22;4982663;28;20058;-67
2022/10/16 04:54:27;;;;;;;5.72;2.95;;;;;;;11.20;100.00;96706.47;4974818;28;20145;-67
2022/10/16 04:56:53;;;;;;;9.88;2.97;;;;;;;11.16;100.00;96705.66;4972349;28;20066;-67
2022/10/16 04:59:19;;;;;;;4.72;2.55;;;;;;;11.17;100.00;96708.03;4976802;28;20045;-68
2022/10/16 05:01:45;;;;;;;9.27;2.80;;;;;;;11.20;100.00;96704.56;4971903;28;20404;-67
2022/10/16 05:04:11;;;;;;;10.15;3.08;;;;;;;11.25;100.00;96709.72;4976182;28;20125;-67
2022/10/16 05:06:38;;;;;;;6.60;3.28;;;;;;;11.29;100.00;96713.28;4981310;28;20137;-67
2022/10/16 05:09:05;;;;;;;8.52;3.38;;;;;;;11.33;100.00;96712.56;4982469;28;20053;-68
2022/10/16 05:11:31;;;;;;;11.85;3.38;;;;;;;11.33;100.00;96716.09;5000865;28;20422;-67
2022/10/16 05:13:56;;;;;;;6.15;3.00;;;;;;;11.37;100.00;96716.13;5000893;28;20037;-67
2022/10/16 05:16:22;;;;;;;8.75;3.15;;;;;;;11.35;100.00;96724.72;4987087;28;20066;-67
2022/10/16 05:18:47;;;;;;;7.97;3.15;;;;;;;11.32;100.00;96717.22;4990399;28;20447;-67
2022/10/16 05:21:13;;;;;;;7.32;3.28;;;;;;;11.19;100.00;96721.38;4977454;28;20629;-67
2022/10/16 05:23:38;;;;;;;8.07;2.78;;;;;;;11.21;100.00;96725.31;4982909;28;20082;-67
2022/10/16 05:26:04;;;;;;;9.38;3.55;;;;;;;11.25;100.00;96712.47;4976925;28;20730;-67
2022/10/16 05:28:30;;;;;;;8.32;3.03;;;;;;;11.30;100.00;96722.31;4980262;28;20073;-67
2022/10/16 05:30:57;;;;;;;13.88;3.03;;;;;;;11.31;100.00;96723.91;4978593;28;20042;-67
2022/10/16 05:33:24;;;;;;;7.32;3.42;;;;;;;11.27;100.00;96728.50;4975658;28;20265;-67
2022/10/16 05:35:50;;;;;;;10.20;3.33;;;;;;;11.26;100.00;96729.69;4980948;28;20085;-66
2022/10/16 05:38:17;;;;;;;8.88;3.42;;;;;;;11.28;100.00;96735.59;4976890;28;20042;-67
2022/10/16 05:40:43;;;;;;;8.68;3.22;;;;;;;11.32;100.00;96733.69;4981028;28;20380;-67
2022/10/16 05:43:08;;;;;;;10.32;3.47;;;;;;;11.22;100.00;96737.09;4976233;28;20096;-67
2022/10/16 05:45:34;;;;;;;15.80;3.45;;;;;;;10.90;100.00;96735.44;4978474;28;20092;-67
2022/10/16 05:48:00;;;;;;;7.65;3.92;;;;;;;10.69;100.00;96729.59;4981225;28;20061;-67
2022/10/16 05:50:26;;;;;;;8.52;4.03;;;;;;;10.53;100.00;96735.22;4976445;28;20050;-67
2022/10/16 05:52:51;;;;;;;7.75;4.30;;;;;;;10.43;100.00;96739.34;4981405;28;20081;-67
2022/10/16 05:55:17;;;;;;;12.48;4.35;;;;;;;10.44;100.00;96748.34;4975622;28;20050;-67
2022/10/16 05:57:42;;;;;;;8.93;4.35;;;;;;;10.46;100.00;96751.53;4982865;28;20125;-67
2022/10/16 06:00:09;;;;;;;10.43;6.00;;;;;;;10.56;100.00;96761.88;4975239;28;20117;-67
2022/10/16 06:02:34;;;;;;;7.00;4.13;;;;;;;10.75;100.00;96757.47;4978997;28;20425;-67
2022/10/16 06:05:00;;;;;;;8.60;4.15;;;;;;;10.84;100.00;96758.84;4979910;28;20101;-68
2022/10/16 06:07:25;;;;;;;9.07;3.75;;;;;;;10.98;100.00;96763.72;4972534;28;20062;-67
2022/10/16 06:09:52;;;;;;;8.30;3.72;;;;;;;10.87;100.00;96760.03;4995457;28;20459;-66
2022/10/16 06:12:18;;;;;;;8.00;4.20;;;;;;;10.76;100.00;96757.13;4985697;28;20045;-67
2022/10/16 06:14:46;;;;;;;7.10;2.95;;;;;;;10.89;100.00;96765.94;4988998;28;20129;-67
2022/10/16 06:17:13;;;;;;;9.07;3.15;;;;;;;10.98;100.00;96763.72;4978744;28;20169;-67
2022/10/16 06:19:39;;;;;;;7.60;2.88;;;;;;;11.02;100.00;96761.84;4984372;28;20177;-68
2022/10/16 06:22:05;;;;;;;8.18;3.13;;;;;;;11.22;100.00;96762.53;4979113;28;20134;-68
2022/10/16 06:24:30;;;;;;;9.40;3.80;;;;;;;11.45;100.00;96767.97;4984515;28;20038;-68
2022/10/16 06:26:55;;;;;;;9.35;2.88;;;;;;;11.63;100.00;96770.97;4985438;28;20077;-68
2022/10/16 06:29:21;;;;;;;11.45;3.25;;;;;;;11.80;100.00;96774.31;4970222;28;20120;-68
2022/10/16 06:31:46;;;;;;;6.60;2.35;;;;;;;11.78;100.00;96774.66;4983237;28;20046;-67
2022/10/16 06:34:12;;;;;;;4.53;2.70;;;;;;;11.96;100.00;96768.66;4981786;28;20149;-68
2022/10/16 06:36:39;;;;;;;7.20;2.03;;;;;;;12.15;100.00;96773.16;4973895;28;20038;-66
2022/10/16 06:39:07;;;;;;;8.63;1.95;;;;;;;12.88;100.00;96772.72;4979195;28;20073;-67
2022/10/16 06:41:33;;;;;;;7.03;1.98;;;;;;;13.68;100.00;96775.63;4984182;28;20042;-67
2022/10/16 06:43:59;;;;;;;5.43;1.90;;;;;;;14.58;100.00;96787.00;4983854;28;20046;-68
2022/10/16 06:46:26;;;;;;;5.45;1.38;;;;;;;15.75;100.00;96784.63;4976665;28;20065;-67
2022/10/16 06:48:53;;;;;;;4.88;1.70;;;;;;;16.05;100.00;96783.38;4984352;28;20042;-68
2022/10/16 06:51:23;;;;;;;2.53;1.48;;;;;;;16.80;100.00;96785.72;4968944;28;20451;-67
2022/10/16 06:53:52;;;;;;;6.20;1.98;;;;;;;15.67;100.00;96781.09;4955079;28;20085;-66
2022/10/16 06:56:20;;;;;;;10.30;2.30;;;;;;;15.17;100.00;96780.38;4957523;28;20062;-68
2022/10/16 06:58:46;;;;;;;9.30;2.30;;;;;;;14.54;100.00;96792.50;4974313;28;20129;-67
2022/10/16 07:01:13;;;;;;;4.85;2.78;;;;;;;14.10;100.00;96796.31;4975019;28;20048;-67
2022/10/16 07:03:41;;;;;;;8.63;2.63;;;;;;;14.00;100.00;96799.00;4983636;28;20038;-67
2022/10/16 07:06:09;;;;;;;7.85;2.13;;;;;;;14.02;100.00;96807.66;4973604;28;20101;-66
2022/10/16 07:08:36;;;;;;;3.72;2.40;;;;;;;14.34;100.00;96813.31;4976365;28;20074;-66
2022/10/16 07:11:08;;;;;;;9.95;3.50;;;;;;;14.29;100.00;96813.69;4981688;28;20537;-67
2022/10/16 07:13:35;;;;;;;8.77;3.58;;;;;;;14.37;100.00;96823.56;4983624;28;20070;-67
2022/10/16 07:16:05;;;;;;;8.98;3.50;;;;;;;14.49;100.00;96825.16;4980084;28;20046;-67
2022/10/16 07:18:32;;;;;;;9.50;3.47;;;;;;;14.57;100.00;96834.22;4976305;28;20049;-67
2022/10/16 07:21:10;;;;;;;8.80;3.80;;;;;;;14.77;100.00;96832.75;4984859;28;20046;-67
2022/10/16 07:23:36;;;;;;;8.18;2.47;;;;;;;15.01;100.00;96838.69;5001289;28;20042;-67
2022/10/16 07:26:02;;;;;;;7.15;2.53;;;;;;;15.31;100.00;96845.81;4982481;28;20042;-68
2022/10/16 07:28:28;;;;;;;6.03;2.80;;;;;;;15.35;100.00;96841.84;4980266;28;20046;-67
2022/10/16 07:30:54;;;;;;;7.20;2.88;;;;;;;14.81;100.00;96846.53;4975209;28;20166;-67
2022/10/16 07:33:20;;;;;;;8.55;2.63;;;;;;;15.10;100.00;96848.13;4971540;28;20030;-66
2022/10/16 07:35:54;;;;;;;7.97;2.85;;;;;;;14.79;100.00;96855.19;4982732;28;20070;-67
2022/10/16 07:38:21;;;;;;;4.53;2.72;;;;;;;14.78;100.00;96858.34;4976154;28;20128;-66
2022/10/16 07:40:47;;;;;;;8.63;2.20;;;;;;;14.77;100.00;96865.06;4983196;28;20077;-66
2022/10/16 07:43:13;;;;;;;5.88;2.65;;;;;;;14.90;100.00;96860.72;4978294;28;20047;-70
2022/10/16 07:45:48;;;;;;;5.57;2.40;;;;;;;15.09;100.00;96854.06;4980742;28;20485;-67
2022/10/16 07:48:13;;;;;;;9.57;3.47;;;;;;;15.35;100.00;96863.94;4978361;28;20046;-66
2022/10/16 07:50:39;;;;;;;4.95;3.00;;;;;;;15.46;100.00;96870.22;4982934;28;20046;-66
2022/10/16 07:53:04;;;;;;;12.80;2.88;;;;;;;15.45;100.00;96868.66;4977518;28;20164;-67
2022/10/16 07:55:30;;;;;;;18.60;4.20;;;;;;;15.44;100.00;96871.81;4984367;28;20042;-67
2022/10/16 07:57:55;;;;;;;6.80;2.67;;;;;;;15.52;100.00;96870.66;4978640;28;20112;-67
2022/10/16 08:00:20;;;;;;;9.77;2.70;;;;;;;15.87;100.00;96869.03;4975524;28;20049;-67
2022/10/16 08:02:46;;;;;;;8.00;2.80;;;;;;;17.11;100.00;96855.09;4993006;28;20061;-67
2022/10/16 08:05:12;;;;;;;7.50;3.25;;;;;;;18.14;100.00;96869.25;4977371;28;20038;-67
2022/10/16 08:07:38;;;;;;;4.65;2.70;;;;;;;18.61;100.00;96879.03;4979859;28;20050;-67
2022/10/16 08:10:03;;;;;;;13.93;4.35;;;;;;;17.94;100.00;96873.81;4992778;28;20794;-67
2022/10/16 08:12:29;;;;;;;9.00;3.22;;;;;;;17.71;100.00;96885.50;5002409;28;20050;-67
2022/10/16 08:14:55;;;;;;;9.73;3.22;;;;;;;18.61;100.00;96888.13;5003878;28;20491;-66
2022/10/16 08:17:20;;;;;;;6.10;3.03;;;;;;;20.20;100.00;96894.84;4996741;28;20038;-66
2022/10/16 08:19:47;;;;;;;5.28;3.00;;;;;;;19.80;100.00;96898.34;5001795;28;20045;-67
2022/10/16 08:22:14;;;;;;;4.18;2.30;;;;;;;19.96;100.00;96897.66;4972426;28;20042;-68
2022/10/16 08:24:39;;;;;;;6.43;2.15;;;;;;;20.98;98.29;96900.09;4983805;28;20045;-67
2022/10/16 08:27:05;;;;;;;4.97;2.25;;;;;;;20.91;100.00;96901.03;4978555;28;20047;-66
2022/10/16 08:29:31;;;;;;;6.72;3.85;;;;;;;21.31;95.15;96905.72;4984036;28;20277;-68
2022/10/16 08:31:56;;;;;;;3.67;2.20;;;;;;;22.07;92.10;96899.91;4981539;28;20042;-68
2022/10/16 08:34:22;;;;;;;4.95;2.17;;;;;;;23.26;80.42;96897.41;4976985;28;20054;-66
2022/10/16 08:36:47;;;;;;;4.20;2.63;;;;;;;;;;4972328;28;20071;-66
2022/10/16 08:39:13;;;;;;;6.15;2.45;;;;;;;22.75;90.26;96907.69;4977661;28;20049;-67
2022/10/16 08:42:02;;;;;;;3.00;2.13;;;;;;;23.07;81.76;96913.13;4980825;28;20380;-67
2022/10/16 08:45:08;;;;;;;5.95;1.92;;;;;;;23.40;76.48;96912.91;4968505;28;20075;-67
2022/10/16 08:48:08;;;;;;;8.45;2.75;;;;;;;21.06;87.32;96920.97;4966458;28;20500;-66
2022/10/16 08:50:38;;;;;;;4.07;1.70;;;;;;;21.37;90.45;96927.06;4976365;28;20050;-67
2022/10/16 08:53:06;;;;;;;10.40;2.08;;;;;;;23.64;76.24;96918.16;4979675;28;20041;-68
2022/10/16 08:55:42;;;;;;;3.15;1.90;;;;;;;24.60;68.67;96914.16;4982918;28;20416;-67
2022/10/16 08:58:17;;;;;;;8.73;2.10;;;;;;;25.86;63.54;96931.00;4976951;28;20057;-67
2022/10/16 09:00:46;;;;;;;4.30;1.52;;;;;;;24.15;70.26;96926.50;4983317;28;20520;-66
2022/10/16 09:03:30;;;;;;;5.75;1.80;;;;;;;23.67;69.92;96936.84;4978136;28;20042;-67
2022/10/16 09:06:07;;;;;;;8.20;1.80;;;;;;;22.87;78.00;96940.44;4973379;28;20054;-67
2022/10/16 09:08:59;;;;;;;4.03;2.17;;;;;;;24.36;68.45;96947.38;4977375;28;20050;-67
2022/10/16 09:11:43;;;;;;;4.25;1.52;;;;;;;26.22;59.17;96952.00;4978148;28;20437;-67
2022/10/16 09:14:49;;;;;;;4.03;1.70;;;;;;;26.15;59.09;96953.09;4976541;28;20042;-67
2022/10/16 09:17:26;;;;;;;5.25;1.58;;;;;;;27.36;54.46;96953.84;4975927;28;20038;-67
2022/10/16 09:20:18;;;;;;;7.43;1.38;;;;;;;27.57;52.98;96958.47;4976408;28;20050;-68
2022/10/16 09:22:43;;;;;;;5.88;1.75;;;;;;;25.52;57.46;96955.97;4977283;28;20089;-67
2022/10/16 09:25:18;;;;;;;6.85;1.60;;;;;;;23.21;69.37;96958.63;4982373;28;20054;-67
2022/10/16 09:27:48;;;;;;;5.32;1.52;;;;;;;22.85;73.26;96957.63;4986993;28;20475;-66
2022/10/16 09:30:17;;;;;;;4.05;1.60;;;;;;;21.58;80.63;96962.03;4980195;28;20052;-66
2022/10/16 09:32:47;;;;;;;3.33;1.80;;;;;;;23.16;72.57;96953.59;4985957;28;20495;-67
2022/10/16 09:35:20;;;;;;;3.90;1.77;;;;;;;23.82;70.39;96951.97;4979507;28;20553;-67
2022/10/16 09:37:48;;;;;;;4.22;2.40;;;;;;;23.02;75.12;96955.53;4984862;28;20038;-67
2022/10/16 09:40:38;;;;;;;6.72;2.08;;;;;;;24.18;66.55;96956.38;4963305;28;20051;-67
2022/10/16 09:43:13;;;;;;;5.35;1.50;;;;;;;25.97;58.88;96961.47;4983602;28;20050;-68
2022/10/16 09:45:38;;;;;;;13.98;3.60;;;;;;;26.46;55.75;96961.38;4984811;28;20054;-66
2022/10/16 09:48:12;;;;;;;3.33;1.42;;;;;;;25.29;58.77;96951.66;4980571;28;20111;-68
2022/10/16 09:50:38;;;;;;;7.10;1.80;;;;;;;24.64;61.19;96955.25;4982303;28;20042;-67
2022/10/16 09:53:11;;;;;;;6.03;1.42;;;;;;;24.67;60.70;96960.72;4981483;28;20038;-68
2022/10/16 09:55:36;;;;;;;7.40;2.92;;;;;;;24.50;60.58;96957.28;4984166;28;20049;-67
2022/10/16 09:58:01;;;;;;;6.55;2.20;;;;;;;23.34;68.24;96950.28;4990551;28;20035;-68
2022/10/16 10:00:27;;;;;;;9.88;1.50;;;;;;;24.47;63.80;96949.00;4990750;28;20073;-67
2022/10/16 10:02:54;;;;;;;4.72;1.38;;;;;;;26.05;56.51;96973.94;4984636;28;20081;-65
2022/10/16 10:05:26;;;;;;;1.98;1.30;;;;;;;27.22;52.29;96963.69;4969705;28;20492;-66
2022/10/16 10:08:16;;;;;;;4.90;1.45;;;;;;;28.49;49.04;96962.06;4984183;28;20050;-67
2022/10/16 10:10:43;;;;;;;3.17;1.30;;;;;;;24.23;59.85;96961.38;5001554;28;20507;-67
2022/10/16 10:13:22;;;;;;;4.55;1.13;;;;;;;23.07;68.10;96965.44;4998835;28;20384;-66
2022/10/16 10:15:48;;;;;;;2.92;1.30;;;;;;;22.43;71.05;96965.16;5001853;28;20052;-67
2022/10/16 10:18:19;;;;;;;3.67;1.10;;;;;;;24.26;66.48;96956.91;4996955;28;20403;-66
2022/10/16 10:20:45;;;;;;;4.05;1.10;;;;;;;25.70;57.36;96963.69;4983336;28;20057;-66
2022/10/16 10:23:22;;;;;;;8.85;1.45;;;;;;;25.30;58.48;96966.44;4979290;28;20043;-66
2022/10/16 10:25:54;;;;;;;4.35;1.08;;;;;;;22.75;67.22;96950.34;4981948;28;20137;-66
2022/10/16 10:28:53;;;;;;;3.08;0.98;;;;;;;23.00;67.44;96946.06;4980554;28;20046;-66
2022/10/16 10:31:28;;;;;;;6.32;1.10;;;;;;;22.61;69.56;96940.34;4980089;28;20039;-67
2022/10/16 10:34:12;;;;;;;2.53;1.35;;;;;;;22.42;73.08;96947.66;4981915;28;20053;-68
2022/10/16 10:36:42;;;;;;;3.22;1.08;;;;;;;21.77;75.87;96942.91;4981649;28;20054;-68
2022/10/16 10:39:19;;;;;;;4.05;1.52;;;;;;;22.44;73.01;96939.63;4979490;28;20066;-68
2022/10/16 10:42:02;;;;;;;3.45;1.20;;;;;;;22.79;73.16;96937.03;4983338;28;20085;-68
2022/10/16 10:44:53;;;;;;;5.35;1.63;;;;;;;22.95;73.52;96935.41;4984039;28;20046;-68
2022/10/16 10:47:30;;;;;;;3.35;1.10;;;;;;;21.96;77.38;96936.41;4969018;28;20078;-67
2022/10/16 10:50:19;;;;;;;5.63;1.60;;;;;;;21.80;76.96;96938.44;4981964;28;20053;-66
2022/10/16 10:52:45;;;;;;;10.17;4.27;;;;;;;22.15;76.68;96933.97;4947350;28;20163;-66
2022/10/16 10:55:13;;;;;;;2.42;1.33;;;;;;;21.74;77.11;96935.41;4941165;28;20071;-66
2022/10/16 10:57:52;;;;;;;2.45;0.90;;;;;;;22.05;77.12;96933.03;4944402;28;20047;-67
2022/10/16 11:00:21;;;;;;;4.15;1.15;;;;;;;22.53;71.99;96925.03;4939753;28;20489;-67
2022/10/16 11:03:02;;;;;;;8.80;2.65;;;;;;;23.96;71.01;96922.72;4944929;28;20097;-66
2022/10/16 11:05:35;;;;;;;7.88;2.08;;;;;;;25.12;64.74;96922.25;4986585;28;20054;-67
2022/10/16 11:08:21;;;;;;;7.45;1.30;;;;;;;23.82;62.92;96932.41;4985614;28;20069;-67
2022/10/16 11:10:52;;;;;;;4.10;1.45;;;;;;;24.61;62.06;96935.31;4965669;28;20043;-67
2022/10/16 11:13:49;;;;;;;5.22;1.20;;;;;;;24.55;59.91;96939.16;4959795;28;20053;-67
2022/10/16 11:16:18;;;;;;;7.47;1.20;;;;;;;24.85;58.44;96934.06;4958670;28;20039;-67
2022/10/16 11:18:56;;;;;;;7.25;1.25;;;;;;;23.72;61.46;96929.91;4970815;28;20140;-66
2022/10/16 11:21:23;;;;;;;2.08;0.80;;;;;;;23.69;63.24;96923.19;4974688;28;20988;-67
2022/10/16 11:24:19;;;;;;;10.85;1.30;;;;;;;22.72;66.85;96920.50;4982656;28;20101;-67
2022/10/16 11:26:47;;;;;;;4.97;1.05;;;;;;;24.40;59.97;96911.63;4983171;28;20376;-66
2022/10/16 11:29:19;;;;;;;2.63;0.90;;;;;;;24.55;57.42;96919.56;4976549;28;20045;-66
2022/10/16 11:31:58;;;;;;;2.72;0.63;;;;;;;23.93;57.94;96915.25;4990428;28;20038;-66
2022/10/16 11:34:37;;;;;;;3.05;0.90;;;;;;;23.58;61.09;96909.56;4970631;28;20575;-67
2022/10/16 11:37:12;;;;;;;3.67;1.00;;;;;;;23.58;61.25;96906.00;4982117;28;20109;-67
2022/10/16 11:39:39;;;;;;;2.88;0.70;;;;;;;23.57;60.29;96898.81;4981443;28;20065;-66